Time;durP1;ratioP1;P1;durP2;ratioP2;P2;SDS_P1;SDS_P2;PMS_P1;PMS_P2;Temp;Humidity;BMP_temperature;BMP_pressure;BME280_temperature;BME280_humidity;BME280_pressure;Samples;Min_cycle;Max_cycle;Signal;HPM_P1;HPM_P2
2023/01/24 00:01:02;;;;;;;23.50;14.30;;;;;;;0.01;100.00;97602.66;4985886;28;20492;-83
2023/01/24 00:03:28;;;;;;;23.40;13.83;;;;;;;-0.03;100.00;97596.78;4963140;28;20485;-84
2023/01/24 00:05:54;;;;;;;23.40;15.30;;;;;;;0.01;100.00;97601.84;4974634;28;20814;-84
2023/01/24 00:08:22;;;;;;;27.67;16.80;;;;;;;-0.01;100.00;97604.47;4958425;28;20031;-83
2023/01/24 00:11:07;;;;;;;28.30;16.17;;;;;;;-0.07;100.00;97590.06;4992186;28;20456;-84
2023/01/24 00:13:34;;;;;;;24.93;16.37;;;;;;;-0.03;100.00;97595.94;4974819;28;20527;-83
2023/01/24 00:16:05;;;;;;;25.67;15.33;;;;;;;-0.07;100.00;97594.34;4990665;28;20495;-84
2023/01/24 00:18:32;;;;;;;26.17;15.13;;;;;;;-0.07;100.00;97596.94;4988008;28;20793;-83
2023/01/24 00:21:09;;;;;;;25.27;15.37;;;;;;;-0.05;100.00;97592.56;4965940;28;20453;-84
2023/01/24 00:23:36;;;;;;;24.20;14.43;;;;;;;-0.02;100.00;97580.34;4971989;28;21425;-82
2023/01/24 00:26:04;;;;;;;24.83;15.93;;;;;;;-0.01;100.00;97581.19;4962319;28;20505;-82
2023/01/24 00:28:30;;;;;;;24.10;14.37;;;;;;;-0.03;100.00;97590.78;4986545;28;20500;-82
2023/01/24 00:30:56;;;;;;;25.47;15.13;;;;;;;-0.01;100.00;97586.38;5000113;28;20453;-82
2023/01/24 00:33:29;;;;;;;23.97;14.33;;;;;;;-0.05;100.00;97587.38;4974807;28;20453;-82
2023/01/24 00:35:55;;;;;;;27.23;14.48;;;;;;;-0.08;100.00;97587.50;4974918;28;20110;-82
2023/01/24 00:38:21;;;;;;;30.13;16.20;;;;;;;-0.06;100.00;97583.13;4987529;28;20038;-82
2023/01/24 00:40:47;;;;;;;22.20;13.63;;;;;;;-0.09;100.00;97589.25;4990305;28;20559;-83
2023/01/24 00:43:16;;;;;;;26.73;16.20;;;;;;;-0.09;100.00;97571.16;4961837;28;20956;-83
2023/01/24 00:45:44;;;;;;;29.57;15.40;;;;;;;-0.12;100.00;97575.63;4959002;28;20470;-83
2023/01/24 00:48:11;;;;;;;23.33;14.50;;;;;;;-0.12;100.00;97575.63;4975471;28;20468;-82
2023/01/24 00:50:36;;;;;;;24.90;16.27;;;;;;;-0.12;100.00;97566.09;4976090;28;20535;-82
2023/01/24 00:53:02;;;;;;;27.53;15.30;;;;;;;-0.11;100.00;97574.69;4979518;28;20465;-82
2023/01/24 00:55:28;;;;;;;24.97;15.17;;;;;;;-0.11;100.00;97567.78;4957818;28;20100;-82
2023/01/24 00:57:54;;;;;;;23.93;14.70;;;;;;;-0.07;100.00;97584.00;4985252;28;20098;-82
2023/01/24 01:00:21;;;;;;;26.67;13.90;;;;;;;-0.08;100.00;97574.59;4979779;28;20474;-82
2023/01/24 01:02:48;;;;;;;24.33;13.97;;;;;;;-0.02;100.00;97582.09;4966199;28;20587;-82
2023/01/24 01:05:13;;;;;;;25.63;14.77;;;;;;;-0.07;100.00;97591.78;4976993;28;20502;-82
2023/01/24 01:07:39;;;;;;;25.53;15.47;;;;;;;-0.08;100.00;97593.53;4957590;28;20559;-82
2023/01/24 01:10:08;;;;;;;26.23;15.47;;;;;;;-0.08;100.00;97587.50;4974179;28;20034;-82
2023/01/24 01:12:34;;;;;;;26.87;14.97;;;;;;;-0.09;100.00;97588.41;4976232;28;20402;-83
2023/01/24 01:15:00;;;;;;;23.53;14.67;;;;;;;-0.10;100.00;97594.47;4974600;28;20441;-81
2023/01/24 01:17:30;;;;;;;26.67;15.60;;;;;;;-0.09;100.00;97599.59;4969391;28;20030;-81
2023/01/24 01:19:55;;;;;;;25.70;15.60;;;;;;;-0.10;100.00;97594.47;4982204;28;20094;-82
2023/01/24 01:22:21;;;;;;;27.40;14.97;;;;;;;-0.12;100.00;97596.28;4950842;28;21098;-82
2023/01/24 01:24:47;;;;;;;23.73;14.07;;;;;;;-0.12;100.00;97602.31;4973252;28;20173;-82
2023/01/24 01:27:13;;;;;;;30.13;16.17;;;;;;;-0.13;100.00;97607.56;4991819;28;20030;-82
2023/01/24 01:29:38;;;;;;;25.57;15.17;;;;;;;-0.09;100.00;97601.34;4957577;28;20030;-82
2023/01/24 01:32:04;;;;;;;26.50;14.93;;;;;;;-0.11;100.00;97598.81;4973594;28;20453;-82
2023/01/24 01:34:30;;;;;;;25.23;15.07;;;;;;;-0.10;100.00;97595.34;4976108;28;20742;-82
2023/01/24 01:37:00;;;;;;;23.33;14.93;;;;;;;-0.08;100.00;97609.03;4974315;28;20096;-82
2023/01/24 01:39:25;;;;;;;28.90;16.57;;;;;;;-0.06;100.00;97609.00;4973949;28;20038;-82
2023/01/24 01:41:51;;;;;;;25.63;15.77;;;;;;;-0.06;100.00;97606.41;4994781;28;21031;-82
2023/01/24 01:44:38;;;;;;;28.70;15.43;;;;;;;-0.06;100.00;97607.25;4979471;28;20034;-82
2023/01/24 01:47:15;;;;;;;27.03;15.10;;;;;;;-0.13;100.00;97604.97;4953377;28;20038;-83
2023/01/24 01:49:57;;;;;;;24.20;13.43;;;;;;;-0.02;100.00;97607.97;4981829;28;20465;-83
2023/01/24 01:52:26;;;;;;;26.43;14.30;;;;;;;-0.06;100.00;97606.41;4980053;28;21011;-82
2023/01/24 01:54:57;;;;;;;25.67;15.50;;;;;;;-0.09;100.00;97602.19;4961815;28;20989;-82
2023/01/24 01:57:30;;;;;;;26.17;15.37;;;;;;;-0.06;100.00;97616.75;4984494;28;20462;-82
2023/01/24 02:00:01;;;;;;;26.70;15.90;;;;;;;-0.03;100.00;97620.06;4984144;28;20454;-83
2023/01/24 02:02:38;;;;;;;23.80;14.67;;;;;;;-0.10;100.00;97608.28;4971610;28;20038;-83
2023/01/24 02:05:07;;;;;;;29.80;16.10;;;;;;;-0.11;100.00;97608.31;4978615;28;21244;-82
2023/01/24 02:07:46;;;;;;;25.63;14.50;;;;;;;-0.06;100.00;97603.81;4979602;28;20458;-83
2023/01/24 02:10:17;;;;;;;27.60;15.90;;;;;;;-0.07;100.00;97600.41;4992221;28;20484;-82
2023/01/24 02:12:46;;;;;;;24.63;14.70;;;;;;;-0.03;100.00;97601.94;4983010;28;20461;-82
2023/01/24 02:18:03;;;;;;;27.83;16.20;;;;;;;-0.10;100.00;97610.84;4996258;28;20461;-82
2023/01/24 02:20:31;;;;;;;23.87;14.70;;;;;;;-0.08;100.00;97613.38;4997919;28;20477;-82
2023/01/24 02:23:01;;;;;;;25.10;14.80;;;;;;;-0.08;100.00;97606.44;4979455;28;20492;-82
2023/01/24 02:25:45;;;;;;;25.67;15.40;;;;;;;-0.12;100.00;97611.81;4962248;28;21522;-83
2023/01/24 02:28:11;;;;;;;24.50;15.23;;;;;;;-0.11;100.00;97609.16;4965995;28;20469;-82
2023/01/24 02:30:38;;;;;;;29.20;16.37;;;;;;;-0.14;100.00;97611.00;4987945;28;20485;-82
2023/01/24 02:33:19;;;;;;;27.80;16.00;;;;;;;-0.11;100.00;97616.06;4982686;28;20473;-82
2023/01/24 02:35:46;;;;;;;27.07;15.63;;;;;;;-0.14;100.00;97618.78;4986375;28;20469;-83
2023/01/24 02:38:23;;;;;;;27.93;16.13;;;;;;;-0.09;100.00;97627.22;4955775;28;20458;-83
2023/01/24 02:40:54;;;;;;;29.07;16.90;;;;;;;-0.12;100.00;97620.41;4971219;28;20500;-83
2023/01/24 02:43:22;;;;;;;27.97;16.67;;;;;;;-0.09;100.00;97624.63;4964404;28;20474;-82
2023/01/24 02:45:48;;;;;;;28.73;16.30;;;;;;;-0.10;100.00;97628.97;4986958;28;20472;-82
2023/01/24 02:48:14;;;;;;;28.00;16.00;;;;;;;-0.12;100.00;97635.91;4980336;28;20475;-82
2023/01/24 02:53:30;;;;;;;28.23;16.83;;;;;;;-0.06;100.00;97637.44;4987091;28;20049;-82
2023/01/24 02:58:52;;;;;;;25.60;15.87;;;;;;;-0.07;100.00;97640.91;4989848;28;20514;-82
2023/01/24 03:01:19;;;;;;;30.33;15.83;;;;;;;-0.11;100.00;97641.94;4987715;28;20805;-82
2023/01/24 03:03:50;;;;;;;27.93;17.03;;;;;;;-0.07;100.00;97643.50;4979540;28;20470;-81
2023/01/24 03:06:18;;;;;;;28.60;16.83;;;;;;;-0.09;100.00;97645.31;4954512;28;20489;-82
2023/01/24 03:08:44;;;;;;;26.43;15.33;;;;;;;-0.12;100.00;97637.66;4978390;28;20458;-83
2023/01/24 03:11:22;;;;;;;29.60;18.00;;;;;;;-0.06;100.00;97655.53;4987664;28;20470;-82
2023/01/24 03:35:53;;;;;;;27.27;15.80;;;;;;;-0.12;100.00;97641.09;4977972;28;20487;-82
2023/01/24 03:41:09;;;;;;;28.40;16.77;;;;;;;-0.07;100.00;97640.91;4989154;28;20828;-82
2023/01/24 03:43:36;;;;;;;28.77;17.20;;;;;;;-0.12;100.00;97642.84;4958718;28;20470;-82
2023/01/24 03:46:06;;;;;;;29.07;17.60;;;;;;;-0.09;100.00;97645.31;4962563;28;20481;-82
2023/01/24 03:48:51;;;;;;;27.27;16.57;;;;;;;-0.12;100.00;97643.69;5003220;28;20469;-83
2023/01/24 03:54:04;;;;;;;28.70;15.93;;;;;;;-0.15;100.00;97642.94;4991080;28;20472;-83
2023/01/24 03:56:39;;;;;;;30.70;17.93;;;;;;;-0.15;100.00;97648.13;4969861;28;20549;-83
2023/01/24 03:59:09;;;;;;;26.40;16.47;;;;;;;-0.16;100.00;97642.13;4977843;28;20449;-82
2023/01/24 04:01:37;;;;;;;27.00;15.30;;;;;;;-0.17;100.00;97649.91;4977906;28;20472;-83
2023/01/24 04:04:17;;;;;;;27.10;15.27;;;;;;;-0.12;100.00;97651.44;4961644;28;20455;-82
2023/01/24 04:06:43;;;;;;;25.03;15.10;;;;;;;-0.16;100.00;97649.03;4998932;28;20560;-82
2023/01/24 04:09:19;;;;;;;30.73;16.00;;;;;;;-0.16;100.00;97644.69;4970073;28;20472;-82
2023/01/24 04:11:46;;;;;;;26.77;15.27;;;;;;;-0.18;100.00;97643.91;4974248;28;20464;-82
2023/01/24 04:14:17;;;;;;;24.07;15.37;;;;;;;-0.10;100.00;97647.06;4974582;28;20457;-82
2023/01/24 04:17:06;;;;;;;26.23;15.30;;;;;;;-0.17;100.00;97640.41;4991780;28;20466;-82
2023/01/24 04:19:44;;;;;;;23.43;14.47;;;;;;;-0.17;100.00;97637.81;4981853;28;21029;-82
2023/01/24 04:22:10;;;;;;;29.27;16.17;;;;;;;-0.18;100.00;97641.31;4963567;28;20457;-82
2023/01/24 04:24:42;;;;;;;29.37;15.67;;;;;;;-0.19;100.00;97647.41;4973193;28;20473;-82
2023/01/24 04:27:08;;;;;;;27.60;16.77;;;;;;;-0.20;100.00;97639.69;4974404;28;20504;-82
2023/01/24 04:29:45;;;;;;;29.10;16.53;;;;;;;-0.19;100.00;97636.22;4982063;28;20477;-82
2023/01/24 04:32:15;;;;;;;29.77;16.67;;;;;;;-0.16;100.00;97641.28;4957165;28;20469;-82
2023/01/24 04:34:55;;;;;;;28.27;16.27;;;;;;;-0.20;100.00;97637.09;4978479;28;20469;-83
2023/01/24 04:37:44;;;;;;;25.83;16.47;;;;;;;-0.25;100.00;97640.72;4985060;28;20026;-82
2023/01/24 04:40:12;;;;;;;29.07;16.33;;;;;;;-0.22;100.00;97649.25;4968664;28;20486;-82
2023/01/24 04:42:44;;;;;;;28.40;16.50;;;;;;;-0.24;100.00;97652.72;4990729;28;20454;-82
2023/01/24 04:45:11;;;;;;;31.40;16.93;;;;;;;-0.25;100.00;97642.47;4956294;28;20473;-82
2023/01/24 04:47:37;;;;;;;27.33;15.70;;;;;;;-0.22;100.00;97651.84;4983163;28;21541;-82
2023/01/24 04:50:05;;;;;;;28.57;15.07;;;;;;;-0.25;100.00;97645.88;4990146;28;20821;-82
2023/01/24 04:52:30;;;;;;;27.37;17.03;;;;;;;-0.24;100.00;97647.56;4972909;28;21011;-82
2023/01/24 04:55:04;;;;;;;26.88;15.35;;;;;;;-0.15;100.00;97648.97;4980121;28;20566;-82
2023/01/24 04:57:30;;;;;;;31.60;18.00;;;;;;;-0.14;100.00;97655.81;4994553;28;20037;-82
2023/01/24 04:59:59;;;;;;;29.87;16.17;;;;;;;-0.18;100.00;97656.00;4982803;28;21007;-82
2023/01/24 05:02:29;;;;;;;27.03;14.80;;;;;;;-0.14;100.00;97667.91;4958424;28;20478;-83
2023/01/24 05:04:55;;;;;;;30.07;15.77;;;;;;;-0.12;100.00;97661.78;4990858;28;20480;-82
2023/01/24 05:07:21;;;;;;;26.23;15.10;;;;;;;-0.22;100.00;97662.19;4971655;28;20488;-83
2023/01/24 05:10:07;;;;;;;;;;;;;;;-0.25;100.00;97661.38;4971397;28;20462;-82
2023/01/24 05:12:34;;;;;;;26.63;15.50;;;;;;;-0.26;100.00;97654.53;4973833;28;19918;-82
2023/01/24 05:15:05;;;;;;;28.43;16.67;;;;;;;-0.20;100.00;97661.25;4960819;28;20465;-82
2023/01/24 05:17:31;;;;;;;29.60;17.43;;;;;;;-0.18;100.00;97668.91;4973781;28;20473;-82
2023/01/24 05:19:57;;;;;;;32.33;16.53;;;;;;;-0.17;100.00;97674.03;4970533;28;20489;-83
2023/01/24 05:22:22;;;;;;;24.20;15.10;;;;;;;-0.17;100.00;97668.00;4972726;28;20394;-82
2023/01/24 05:24:50;;;;;;;25.43;15.13;;;;;;;-0.20;100.00;97671.56;4982120;28;20030;-82
2023/01/24 05:27:15;;;;;;;29.67;16.20;;;;;;;-0.20;100.00;97665.53;4962292;28;20508;-82
2023/01/24 05:29:46;;;;;;;25.60;14.27;;;;;;;-0.17;100.00;97670.59;4968236;28;21169;-82
2023/01/24 05:32:12;;;;;;;22.53;13.47;;;;;;;-0.18;100.00;97671.50;4986810;28;20494;-81
2023/01/24 05:34:40;;;;;;;27.57;14.17;;;;;;;-0.20;100.00;97675.88;4976301;28;20030;-82
2023/01/24 05:37:07;;;;;;;24.37;13.83;;;;;;;-0.21;100.00;97680.22;4972951;28;20448;-82
2023/01/24 05:39:40;;;;;;;25.87;15.07;;;;;;;-0.18;100.00;97690.44;4976443;28;20466;-82
2023/01/24 05:42:06;;;;;;;26.10;15.77;;;;;;;-0.21;100.00;97694.88;4964699;28;20465;-82
2023/01/24 05:44:40;;;;;;;20.40;11.60;;;;;;;-0.21;100.00;97694.88;4978291;28;20485;-82
2023/01/24 05:47:07;;;;;;;24.03;13.97;;;;;;;-0.22;100.00;97706.13;4981292;28;20041;-82
2023/01/24 05:49:36;;;;;;;22.30;13.80;;;;;;;-0.18;100.00;97697.34;4991097;28;20440;-82
2023/01/24 05:52:02;;;;;;;21.50;13.73;;;;;;;-0.25;100.00;97704.50;4957811;28;20457;-81
2023/01/24 05:54:50;;;;;;;23.83;13.13;;;;;;;-0.16;100.00;97693.00;4993656;28;20139;-82
2023/01/24 05:57:30;;;;;;;22.73;13.40;;;;;;;-0.20;100.00;97691.41;4994238;28;20500;-82
2023/01/24 06:00:24;;;;;;;;;;;;;;;-0.24;100.00;97693.25;4974757;28;20473;-82
2023/01/24 06:03:08;;;;;;;21.48;13.13;;;;;;;-0.22;100.00;97698.38;4997419;28;19921;-82
2023/01/24 06:05:35;;;;;;;25.40;13.53;;;;;;;-0.26;100.00;97701.06;4968203;28;20030;-82
2023/01/24 06:08:00;;;;;;;23.57;13.77;;;;;;;-0.24;100.00;97699.25;4990498;28;20022;-82
2023/01/24 06:10:27;;;;;;;21.77;14.13;;;;;;;-0.21;100.00;97700.06;4959036;28;20462;-81
2023/01/24 06:13:01;;;;;;;22.23;13.35;;;;;;;-0.20;100.00;97701.72;4988309;28;20440;-81
2023/01/24 06:15:27;;;;;;;25.47;14.50;;;;;;;-0.16;100.00;97700.75;4996760;28;20034;-82
2023/01/24 06:17:53;;;;;;;26.40;15.17;;;;;;;-0.17;100.00;97701.63;4980265;28;20030;-82
2023/01/24 06:20:19;;;;;;;22.27;13.43;;;;;;;-0.17;100.00;97701.63;4967338;28;20466;-82
2023/01/24 06:23:05;;;;;;;21.40;13.83;;;;;;;-0.16;100.00;97705.91;4982433;28;20560;-83
2023/01/24 06:25:35;;;;;;;23.77;13.87;;;;;;;-0.21;100.00;97707.81;4975974;28;20481;-80
2023/01/24 06:28:03;;;;;;;20.23;12.80;;;;;;;-0.20;100.00;97701.72;4970520;28;20488;-80
2023/01/24 06:30:29;;;;;;;19.00;12.40;;;;;;;-0.19;100.00;97706.03;4974020;28;20030;-86
2023/01/24 06:33:33;;;;;;;44.37;27.80;;;;;;;0.66;100.00;97712.19;4965022;28;20786;-87
2023/01/24 06:36:35;;;;;;;24.70;15.30;;;;;;;0.09;100.00;97714.41;4971502;28;20038;-82
2023/01/24 06:42:18;;;;;;;22.60;13.87;;;;;;;-0.10;100.00;97711.69;4988020;28;20433;-82
2023/01/24 06:44:43;;;;;;;22.77;13.97;;;;;;;-0.13;100.00;97708.38;4957896;28;20916;-82
2023/01/24 06:47:13;;;;;;;26.23;14.57;;;;;;;-0.14;100.00;97709.28;4988164;28;20521;-82
2023/01/24 06:49:39;;;;;;;22.47;13.27;;;;;;;-0.09;100.00;97715.13;4971468;28;20125;-82
2023/01/24 06:52:06;;;;;;;24.00;15.37;;;;;;;-0.13;100.00;97724.75;4983489;28;20453;-82
2023/01/24 06:54:33;;;;;;;20.87;12.80;;;;;;;-0.06;100.00;97725.34;4969752;28;20489;-82
2023/01/24 06:56:59;;;;;;;31.07;17.10;;;;;;;0.00;100.00;97725.13;4976537;28;20474;-83
2023/01/24 06:59:25;;;;;;;22.67;12.80;;;;;;;0.31;100.00;97718.78;4978382;28;20507;-82
2023/01/24 07:01:51;;;;;;;23.13;13.17;;;;;;;0.46;100.00;97716.41;4981864;28;20076;-81
2023/01/24 07:04:18;;;;;;;24.33;12.43;;;;;;;0.17;100.00;97721.91;4976346;28;20049;-82
2023/01/24 07:06:52;;;;;;;21.37;13.47;;;;;;;0.11;100.00;97724.72;4977426;28;20546;-82
2023/01/24 07:09:23;;;;;;;20.57;12.60;;;;;;;0.15;100.00;97724.53;4975001;28;21119;-82
2023/01/24 07:11:52;;;;;;;21.60;13.07;;;;;;;0.04;100.00;97737.03;4973667;28;20558;-82
2023/01/24 07:14:18;;;;;;;34.43;14.67;;;;;;;0.48;100.00;97742.25;4967123;28;20461;-88
2023/01/24 07:16:47;;;;;;;24.87;14.40;;;;;;;0.07;100.00;97751.56;4977535;28;20472;-82
2023/01/24 07:19:15;;;;;;;23.00;14.73;;;;;;;0.04;100.00;97749.97;4996375;28;20517;-83
2023/01/24 07:21:42;;;;;;;21.37;12.03;;;;;;;0.05;100.00;97753.41;4956869;28;21046;-84
2023/01/24 07:24:15;;;;;;;23.53;13.40;;;;;;;0.00;100.00;97748.41;4990427;28;20457;-82
2023/01/24 07:26:54;;;;;;;20.20;12.30;;;;;;;-0.02;100.00;97755.38;4981308;28;20535;-83
2023/01/24 07:29:33;;;;;;;22.17;13.17;;;;;;;-0.01;100.00;97757.88;4957148;28;20473;-86
2023/01/24 07:32:09;;;;;;;23.10;12.97;;;;;;;0.01;100.00;97757.00;4977248;28;20480;-83
2023/01/24 07:34:49;;;;;;;23.77;12.50;;;;;;;-0.04;100.00;97754.56;4966421;28;20469;-85
2023/01/24 07:37:21;;;;;;;21.97;12.93;;;;;;;-0.01;100.00;97755.31;4962831;28;20464;-86
2023/01/24 07:39:49;;;;;;;22.57;13.37;;;;;;;0.01;100.00;97757.00;4983139;28;20539;-86
2023/01/24 07:42:18;;;;;;;23.03;12.83;;;;;;;0.03;100.00;97766.38;4972449;28;20523;-84
2023/01/24 07:44:46;;;;;;;21.40;12.93;;;;;;;-0.04;100.00;97762.34;4991015;28;20528;-84
2023/01/24 07:47:17;;;;;;;25.40;15.43;;;;;;;-0.05;100.00;97773.59;4993618;28;21042;-82
2023/01/24 07:49:47;;;;;;;27.07;15.30;;;;;;;-0.04;100.00;97767.50;4970486;28;20035;-81
2023/01/24 07:52:14;;;;;;;23.53;14.10;;;;;;;0.00;100.00;97771.69;4934962;28;20485;-80
2023/01/24 07:54:41;;;;;;;23.17;13.67;;;;;;;-0.05;100.00;97778.75;4929816;28;20882;-80
2023/01/24 07:57:08;;;;;;;24.93;15.37;;;;;;;-0.06;100.00;97772.75;4894824;28;20571;-80
2023/01/24 07:59:35;;;;;;;26.13;14.20;;;;;;;0.01;100.00;97773.38;4929370;28;20473;-81
2023/01/24 08:02:04;;;;;;;21.53;13.40;;;;;;;-0.03;100.00;97782.13;4956530;28;20591;-83
2023/01/24 08:04:39;;;;;;;26.47;14.90;;;;;;;0.00;100.00;97782.03;4965699;28;20437;-81
2023/01/24 08:07:18;;;;;;;23.90;14.23;;;;;;;-0.01;100.00;97785.50;4990232;28;20481;-83
2023/01/24 08:09:47;;;;;;;23.10;14.47;;;;;;;-0.05;100.00;97787.34;4960344;28;20481;-82
2023/01/24 08:12:19;;;;;;;22.57;13.93;;;;;;;-0.04;100.00;97783.84;4987333;28;20476;-83
2023/01/24 08:14:52;;;;;;;22.67;13.27;;;;;;;-0.03;100.00;97789.91;4973162;28;20517;-82
2023/01/24 08:17:25;;;;;;;27.63;14.13;;;;;;;0.06;100.00;97794.72;4975339;28;20450;-83
2023/01/24 08:19:50;;;;;;;20.20;10.57;;;;;;;-0.01;100.00;97795.84;4992106;28;20042;-81
2023/01/24 08:22:16;;;;;;;22.87;13.17;;;;;;;-0.04;100.00;97791.63;4964517;28;20088;-83
2023/01/24 08:24:43;;;;;;;20.73;13.03;;;;;;;-0.02;100.00;97795.00;4972813;28;20038;-83
2023/01/24 08:27:08;;;;;;;27.63;15.33;;;;;;;-0.02;100.00;97794.16;4975193;28;20477;-83
2023/01/24 08:29:34;;;;;;;22.73;13.20;;;;;;;-0.01;100.00;97798.44;4974877;28;20535;-82
2023/01/24 08:32:00;;;;;;;23.73;13.33;;;;;;;0.03;100.00;97797.41;4960639;28;20237;-83
2023/01/24 08:34:27;;;;;;;20.20;12.53;;;;;;;0.01;100.00;97803.56;4976543;28;20394;-81
2023/01/24 08:36:53;;;;;;;25.23;16.13;;;;;;;0.05;100.00;97798.22;4975387;28;20045;-81
2023/01/24 08:39:23;;;;;;;22.40;13.00;;;;;;;0.07;100.00;97803.31;4962258;28;20469;-82
2023/01/24 08:41:56;;;;;;;21.33;13.27;;;;;;;0.17;100.00;97800.34;4957033;28;20038;-82
2023/01/24 08:44:26;;;;;;;21.03;12.20;;;;;;;0.11;100.00;97810.09;4965782;28;20481;-80
2023/01/24 08:46:52;;;;;;;21.70;13.13;;;;;;;0.14;100.00;97804.81;4980066;28;20510;-82
2023/01/24 08:49:17;;;;;;;20.40;12.10;;;;;;;0.15;100.00;97807.31;4978339;28;20584;-80
2023/01/24 08:51:43;;;;;;;20.83;12.13;;;;;;;0.14;100.00;97805.63;4966241;28;20066;-82
2023/01/24 08:54:09;;;;;;;22.00;12.07;;;;;;;0.15;100.00;97812.50;4972856;28;20031;-81
2023/01/24 08:56:42;;;;;;;24.43;13.77;;;;;;;0.20;100.00;97817.47;4973723;28;20590;-81
2023/01/24 08:59:08;;;;;;;16.45;10.25;;;;;;;0.20;100.00;97815.75;4977856;28;20030;-80
2023/01/24 09:01:41;;;;;;;33.23;20.20;;;;;;;0.35;100.00;97808.31;4975901;28;20045;-85
2023/01/24 09:04:15;;;;;;;30.13;17.92;;;;;;;0.39;100.00;97813.31;4973613;28;20045;-83
2023/01/24 09:06:45;;;;;;;26.33;13.43;;;;;;;0.36;100.00;97817.75;4981082;28;20030;-81
2023/01/24 09:09:11;;;;;;;19.90;11.73;;;;;;;0.29;100.00;97824.06;4976440;28;20511;-83
2023/01/24 09:11:36;;;;;;;21.00;11.70;;;;;;;0.36;100.00;97822.94;4974301;28;20869;-83
2023/01/24 09:14:03;;;;;;;20.03;12.53;;;;;;;0.38;100.00;97823.75;4984257;28;20026;-82
2023/01/24 09:16:34;;;;;;;20.17;11.87;;;;;;;0.38;100.00;97828.91;4989905;28;20034;-80
2023/01/24 09:19:07;;;;;;;19.80;11.83;;;;;;;0.47;100.00;97838.94;4973564;28;21240;-80
2023/01/24 09:21:33;;;;;;;19.30;12.32;;;;;;;0.36;100.00;97825.53;4976853;28;20463;-81
2023/01/24 09:24:00;;;;;;;17.70;11.40;;;;;;;0.38;100.00;97831.50;4958090;28;20026;-80
2023/01/24 09:26:27;;;;;;;21.60;11.73;;;;;;;0.31;100.00;97832.63;4960486;28;20034;-80
2023/01/24 09:28:52;;;;;;;21.27;11.73;;;;;;;0.36;100.00;97836.72;4972523;28;20526;-83
2023/01/24 09:31:18;;;;;;;19.27;10.73;;;;;;;0.41;100.00;97834.81;4989209;28;20802;-82
2023/01/24 09:33:44;;;;;;;22.07;12.07;;;;;;;0.42;100.00;97840.84;4960179;28;20056;-83
2023/01/24 09:36:10;;;;;;;18.70;10.87;;;;;;;0.43;100.00;97834.75;4953367;28;20038;-82
2023/01/24 09:38:36;;;;;;;19.33;11.10;;;;;;;0.46;100.00;97829.47;4989282;28;20603;-82
2023/01/24 09:41:39;;;;;;;17.10;10.13;;;;;;;0.54;100.00;97829.16;4988724;28;20124;-82
2023/01/24 09:44:16;;;;;;;23.10;11.83;;;;;;;0.62;100.00;97835.75;4930357;28;20080;-82
2023/01/24 09:46:45;;;;;;;16.80;10.47;;;;;;;0.62;100.00;97832.31;4895333;28;20489;-80
2023/01/24 09:49:47;;;;;;;20.57;12.07;;;;;;;0.68;100.00;97819.13;4942464;28;20438;-79
2023/01/24 09:52:25;;;;;;;18.17;11.03;;;;;;;0.66;100.00;97829.53;4920177;28;20508;-81
2023/01/24 09:55:05;;;;;;;19.93;11.83;;;;;;;0.62;100.00;97820.22;4985727;28;20960;-79
2023/01/24 09:57:52;;;;;;;21.37;12.93;;;;;;;0.64;100.00;97836.53;4975480;28;20558;-79
2023/01/24 10:00:26;;;;;;;21.63;12.27;;;;;;;0.69;100.00;97839.78;4990782;28;20508;-79
2023/01/24 10:03:00;;;;;;;28.85;19.80;;;;;;;0.60;100.00;97844.47;4955554;28;20825;-79
2023/01/24 10:05:34;;;;;;;26.60;18.30;;;;;;;0.67;100.00;97839.00;4997694;28;20045;-81
2023/01/24 10:08:26;;;;;;;41.08;25.00;;;;;;;0.74;100.00;97836.16;4955218;28;20485;-80
2023/01/24 10:11:20;;;;;;;26.17;15.13;;;;;;;0.73;100.00;97835.31;4972654;28;20478;-80
2023/01/24 10:13:50;;;;;;;;;;;;;;;0.84;100.00;97829.72;4970050;28;20465;-80
2023/01/24 10:16:48;;;;;;;27.43;12.43;;;;;;;0.74;100.00;97837.03;4980606;28;19913;-80
2023/01/24 10:19:30;;;;;;;17.80;10.43;;;;;;;0.81;100.00;97832.47;4993405;28;20477;-80
2023/01/24 10:22:23;;;;;;;22.65;11.43;;;;;;;0.82;100.00;97841.91;4981730;28;20478;-80
2023/01/24 10:25:19;;;;;;;16.37;10.13;;;;;;;0.89;100.00;97839.00;4987592;28;20088;-80
2023/01/24 10:27:51;;;;;;;19.93;11.30;;;;;;;0.87;100.00;97839.97;4986682;28;20517;-80
2023/01/24 10:30:46;;;;;;;16.93;10.37;;;;;;;0.91;100.00;97841.56;4971208;28;20481;-80
2023/01/24 10:33:18;;;;;;;19.87;11.03;;;;;;;0.96;100.00;97838.78;4950684;28;20466;-80
2023/01/24 10:35:55;;;;;;;16.57;10.07;;;;;;;0.91;100.00;97833.78;4970195;28;20485;-80
2023/01/24 10:38:21;;;;;;;17.83;9.40;;;;;;;0.92;100.00;97836.31;4988013;28;20842;-80
2023/01/24 10:40:53;;;;;;;15.60;9.73;;;;;;;0.97;100.00;97835.28;4959989;28;20469;-80
2023/01/24 10:43:24;;;;;;;22.47;10.80;;;;;;;1.05;100.00;97831.47;4956708;28;20034;-80
2023/01/24 10:46:08;;;;;;;17.83;10.47;;;;;;;1.03;100.00;97832.44;4956220;28;20556;-80
2023/01/24 10:48:51;;;;;;;15.53;10.17;;;;;;;1.05;100.00;97838.41;4967766;28;20716;-80
2023/01/24 10:51:19;;;;;;;19.37;10.60;;;;;;;1.07;100.00;97829.66;4987630;28;20027;-80
2023/01/24 10:53:46;;;;;;;16.33;9.97;;;;;;;1.03;100.00;97830.69;4968226;28;20556;-80
2023/01/24 10:56:14;;;;;;;15.50;9.53;;;;;;;1.10;100.00;97828.69;4971052;28;20022;-81
2023/01/24 10:59:06;;;;;;;18.10;10.90;;;;;;;1.17;100.00;97818.03;4956894;28;20046;-81
2023/01/24 11:01:44;;;;;;;16.93;10.90;;;;;;;1.23;100.00;97829.88;4969813;28;20117;-80
2023/01/24 11:04:21;;;;;;;16.43;10.30;;;;;;;1.06;100.00;97822.78;4951241;28;20109;-81
2023/01/24 11:06:49;;;;;;;17.73;10.63;;;;;;;1.08;100.00;97814.97;4975006;28;20317;-84
2023/01/24 11:09:19;;;;;;;21.03;12.07;;;;;;;1.10;100.00;97818.34;4990680;28;20037;-83
2023/01/24 11:11:51;;;;;;;171.63;94.27;;;;;;;1.35;100.00;97815.59;4964257;28;21122;-87
2023/01/24 11:14:23;;;;;;;25.63;12.80;;;;;;;1.29;100.00;97808.06;4976624;28;20065;-86
2023/01/24 11:16:57;;;;;;;15.47;10.03;;;;;;;1.35;100.00;97802.63;4970671;28;20536;-90
2023/01/24 11:19:32;;;;;;;17.90;9.20;;;;;;;1.32;100.00;97797.56;4980963;28;20613;-82
2023/01/24 11:22:01;;;;;;;18.77;9.00;;;;;;;1.56;100.00;97793.09;4960976;28;20038;-83
2023/01/24 11:24:27;;;;;;;23.00;11.57;;;;;;;1.49;100.00;97795.13;4980217;28;20474;-84
2023/01/24 11:27:16;;;;;;;21.50;11.30;;;;;;;1.55;100.00;97794.88;4957559;28;20470;-83
2023/01/24 11:29:42;;;;;;;16.53;9.63;;;;;;;1.47;100.00;97786.53;4992985;28;20108;-83
2023/01/24 11:32:36;;;;;;;17.47;9.33;;;;;;;1.52;100.00;97789.81;4975446;28;20505;-84
2023/01/24 11:35:34;;;;;;;17.77;9.43;;;;;;;1.60;100.00;97787.72;4977527;28;20053;-82
2023/01/24 11:38:24;;;;;;;15.13;8.50;;;;;;;1.76;100.00;97774.94;4980092;28;20137;-82
2023/01/24 11:41:02;;;;;;;14.63;9.43;;;;;;;1.71;100.00;97769.13;4973088;28;20050;-82
2023/01/24 11:43:48;;;;;;;16.20;8.30;;;;;;;1.91;100.00;97768.22;4971939;28;20514;-81
2023/01/24 11:46:44;;;;;;;15.43;8.63;;;;;;;1.69;100.00;97764.91;4976989;28;20437;-86
2023/01/24 11:49:36;;;;;;;22.70;12.03;;;;;;;1.73;100.00;97763.84;4980560;28;20031;-86
2023/01/24 11:52:20;;;;;;;17.20;9.70;;;;;;;1.72;100.00;97754.41;4994367;28;20034;-83
2023/01/24 11:55:02;;;;;;;17.52;10.40;;;;;;;1.83;100.00;97757.34;4979521;28;20057;-83
2023/01/24 11:57:47;;;;;;;15.17;8.73;;;;;;;1.72;100.00;97755.22;4973663;28;20038;-84
2023/01/24 12:00:48;;;;;;;13.67;9.10;;;;;;;1.69;100.00;97759.72;4979953;28;20089;-87
2023/01/24 12:03:38;;;;;;;15.93;10.33;;;;;;;1.83;100.00;97759.94;4990300;28;20478;-83
2023/01/24 12:06:30;;;;;;;20.47;11.07;;;;;;;1.95;100.00;97755.97;4974703;28;20097;-87
2023/01/24 12:09:16;;;;;;;18.47;11.07;;;;;;;1.87;100.00;97753.69;4976662;28;20397;-84
2023/01/24 12:12:09;;;;;;;20.83;11.57;;;;;;;1.71;100.00;97744.91;4972848;28;20062;-84
2023/01/24 12:15:07;;;;;;;15.83;8.70;;;;;;;1.73;100.00;97745.69;4981646;28;20041;-84
2023/01/24 12:17:51;;;;;;;17.60;8.70;;;;;;;1.81;100.00;97743.59;4986776;28;20152;-84